createdAt,value
2019-05-07T00:02:23.942Z,11.30
2019-05-07T00:04:52.767Z,11.20
2019-05-07T00:07:22.424Z,11.10
2019-05-07T00:09:52.565Z,11.20
2019-05-07T00:12:23.090Z,11.10
2019-05-07T00:15:00.916Z,11.10
2019-05-07T00:17:22.924Z,11.00
2019-05-07T00:19:52.597Z,10.90
2019-05-07T00:22:22.690Z,10.90
2019-05-07T00:24:52.229Z,10.90
2019-05-07T00:27:22.575Z,10.90
2019-05-07T00:29:52.137Z,10.90
2019-05-07T00:32:22.127Z,10.90
2019-05-07T00:35:02.482Z,10.80
2019-05-07T00:37:35.931Z,10.90
2019-05-07T00:40:13.688Z,10.90
2019-05-07T00:43:02.578Z,10.90
2019-05-07T00:45:42.104Z,11.00
2019-05-07T00:48:12.676Z,10.90
2019-05-07T00:50:43.415Z,10.80
2019-05-07T00:53:13.097Z,10.70
2019-05-07T00:55:42.385Z,10.60
2019-05-07T00:58:13.253Z,10.50
2019-05-07T01:00:42.270Z,10.50
2019-05-07T01:03:12.868Z,10.40
2019-05-07T01:05:43.170Z,10.30
2019-05-07T01:08:13.143Z,10.30
2019-05-07T01:10:42.389Z,10.30
2019-05-07T01:13:12.567Z,10.50
2019-05-07T01:15:42.990Z,10.50
2019-05-07T01:18:12.432Z,10.50
2019-05-07T01:20:42.322Z,10.40
2019-05-07T01:23:13.442Z,10.40
2019-05-07T01:25:43.028Z,10.30
2019-05-07T01:28:13.206Z,10.30
2019-05-07T01:30:43.225Z,10.30
2019-05-07T01:33:13.816Z,10.20
2019-05-07T01:35:44.265Z,10.10
2019-05-07T01:38:15.136Z,10.10
2019-05-07T01:40:44.007Z,10.20
2019-05-07T01:43:12.836Z,10.30
2019-05-07T01:45:49.496Z,10.30
2019-05-07T01:48:16.043Z,10.40
2019-05-07T01:50:44.871Z,10.50
2019-05-07T01:53:13.724Z,10.70
2019-05-07T01:55:42.916Z,10.90
2019-05-07T01:58:12.511Z,10.90
2019-05-07T02:00:42.426Z,10.90
2019-05-07T02:03:16.023Z,10.90
2019-05-07T02:06:02.214Z,10.90
2019-05-07T02:08:44.678Z,10.90
2019-05-07T02:11:14.228Z,10.80
2019-05-07T02:13:43.064Z,10.80
2019-05-07T02:16:12.457Z,10.90
2019-05-07T02:18:42.482Z,10.90
2019-05-07T02:21:12.855Z,10.90
2019-05-07T02:23:42.549Z,10.90
2019-05-07T02:26:13.311Z,10.80
2019-05-07T02:28:42.743Z,10.80
2019-05-07T02:31:14.998Z,10.70
2019-05-07T02:33:43.354Z,10.80
2019-05-07T02:36:14.186Z,10.70
2019-05-07T02:38:56.537Z,10.70
2019-05-07T02:41:33.265Z,10.70
2019-05-07T02:44:04.208Z,10.80
2019-05-07T02:46:36.254Z,10.80
2019-05-07T02:49:09.237Z,10.80
2019-05-07T02:51:53.118Z,10.80
2019-05-07T02:54:24.176Z,10.80
2019-05-07T02:56:53.535Z,10.70
2019-05-07T02:59:23.366Z,10.60
2019-05-07T03:01:53.746Z,10.50
2019-05-07T03:04:24.972Z,10.40
2019-05-07T03:06:54.223Z,10.20
2019-05-07T03:09:23.646Z,10.10
2019-05-07T03:11:52.975Z,10.00
2019-05-07T03:14:23.344Z,10.00
2019-05-07T03:16:53.664Z,10.00
2019-05-07T03:19:24.177Z,10.00
2019-05-07T03:21:54.347Z,10.00
2019-05-07T03:24:34.207Z,10.00
2019-05-07T03:27:03.368Z,9.80
2019-05-07T03:29:33.307Z,9.80
2019-05-07T03:32:26.688Z,9.90
2019-05-07T03:34:57.793Z,9.90
2019-05-07T03:37:31.752Z,9.80
2019-05-07T03:39:58.247Z,9.70
2019-05-07T03:42:27.100Z,9.70
2019-05-07T03:44:57.512Z,9.80
2019-05-07T03:47:33.102Z,9.80
2019-05-07T03:50:03.253Z,9.80
2019-05-07T03:52:33.493Z,9.80
2019-05-07T03:55:03.698Z,9.90
2019-05-07T03:57:33.411Z,9.90
2019-05-07T04:00:04.291Z,9.80
2019-05-07T04:02:33.603Z,9.80
2019-05-07T04:05:04.273Z,9.80
2019-05-07T04:07:33.723Z,9.70
2019-05-07T04:10:04.860Z,9.70
2019-05-07T04:12:34.430Z,9.70
2019-05-07T04:15:03.732Z,9.80
2019-05-07T04:17:33.824Z,9.60
2019-05-07T04:20:04.546Z,9.50
2019-05-07T04:22:34.812Z,9.50
2019-05-07T04:25:20.263Z,9.40
2019-05-07T04:28:10.304Z,9.30
2019-05-07T04:30:39.682Z,9.30
2019-05-07T04:33:12.889Z,9.30
2019-05-07T04:35:45.125Z,9.30
2019-05-07T04:38:14.062Z,9.50
2019-05-07T04:40:43.672Z,9.60
2019-05-07T04:43:13.538Z,9.70
2019-05-07T04:45:43.460Z,9.70
2019-05-07T04:48:14.250Z,9.70
2019-05-07T04:50:47.678Z,9.80
2019-05-07T04:53:15.084Z,9.80
2019-05-07T04:55:44.322Z,9.90
2019-05-07T04:58:14.166Z,10.00
2019-05-07T05:00:43.552Z,10.10
2019-05-07T05:03:24.064Z,10.20
2019-05-07T05:05:53.677Z,10.20
2019-05-07T05:08:23.589Z,10.40
2019-05-07T05:10:53.731Z,10.40
2019-05-07T05:13:23.884Z,10.50
2019-05-07T05:15:53.033Z,10.70
2019-05-07T05:18:22.423Z,10.80
2019-05-07T05:20:52.809Z,11.00
2019-05-07T05:23:35.446Z,11.10
2019-05-07T05:26:04.268Z,11.20
2019-05-07T05:28:33.130Z,11.40
2019-05-07T05:31:03.540Z,11.80
2019-05-07T05:33:32.508Z,11.90
2019-05-07T05:36:03.058Z,12.00
2019-05-07T05:38:32.898Z,12.20
2019-05-07T05:41:02.879Z,12.30
2019-05-07T05:43:48.424Z,12.30
2019-05-07T05:46:19.107Z,12.40
2019-05-07T05:48:47.927Z,12.50
2019-05-07T05:51:33.444Z,12.60
2019-05-07T05:54:12.812Z,12.70
2019-05-07T05:56:55.268Z,12.80
2019-05-07T05:59:37.108Z,12.90
2019-05-07T06:02:15.811Z,12.90
2019-05-07T06:05:02.343Z,13.00
2019-05-07T06:07:35.645Z,13.10
2019-05-07T06:10:22.503Z,13.20
2019-05-07T06:12:53.127Z,13.30
2019-05-07T06:15:41.917Z,13.50
2019-05-07T06:18:28.673Z,13.80
2019-05-07T06:20:59.072Z,14.00
2019-05-07T06:23:33.173Z,14.50
2019-05-07T06:26:05.099Z,14.90
2019-05-07T06:28:33.066Z,15.10
2019-05-07T06:31:02.245Z,15.10
2019-05-07T06:33:32.402Z,14.90
2019-05-07T06:36:02.827Z,14.60
2019-05-07T06:38:33.683Z,14.30
2019-05-07T06:41:04.079Z,14.20
2019-05-07T06:43:34.508Z,14.20
2019-05-07T06:46:05.045Z,14.20
2019-05-07T06:48:41.801Z,14.20
2019-05-07T06:51:04.423Z,14.40
2019-05-07T06:53:33.641Z,14.60
2019-05-07T06:56:03.900Z,14.60
2019-05-07T06:58:34.360Z,14.70
2019-05-07T07:01:12.090Z,14.70
2019-05-07T07:03:45.870Z,14.90
2019-05-07T07:06:22.971Z,15.00
2019-05-07T07:09:09.659Z,15.20
2019-05-07T07:11:43.170Z,15.30
2019-05-07T07:14:12.064Z,15.40
2019-05-07T07:16:42.043Z,15.60
2019-05-07T07:19:12.465Z,15.80
2019-05-07T07:21:42.142Z,15.90
2019-05-07T07:24:12.718Z,16.20
2019-05-07T07:26:42.205Z,16.30
2019-05-07T07:29:12.925Z,16.50
2019-05-07T07:31:52.777Z,16.80
2019-05-07T07:34:22.873Z,16.90
2019-05-07T07:37:09.783Z,16.70
2019-05-07T07:39:36.351Z,16.90
2019-05-07T07:42:06.884Z,17.00
2019-05-07T07:44:35.692Z,16.90
2019-05-07T07:47:04.502Z,16.80
2019-05-07T07:49:33.346Z,17.00
2019-05-07T07:52:03.141Z,16.90
2019-05-07T07:54:32.306Z,17.10
2019-05-07T07:57:02.751Z,17.10
2019-05-07T07:59:49.231Z,17.30
2019-05-07T08:02:23.027Z,17.40
2019-05-07T08:04:52.756Z,17.30
2019-05-07T08:07:22.852Z,17.00
2019-05-07T08:09:52.087Z,17.00
2019-05-07T08:12:22.176Z,17.00
2019-05-07T08:14:51.936Z,17.10
2019-05-07T08:17:22.390Z,17.20
2019-05-07T08:19:52.011Z,17.10
2019-05-07T08:22:22.589Z,17.00
2019-05-07T08:24:52.035Z,17.10
2019-05-07T08:27:22.163Z,17.20
2019-05-07T08:29:52.489Z,17.30
2019-05-07T08:32:28.871Z,16.90
2019-05-07T08:34:59.301Z,17.10
2019-05-07T08:37:28.119Z,17.30
2019-05-07T08:39:56.963Z,17.30
2019-05-07T08:42:25.802Z,17.30
2019-05-07T08:44:56.218Z,17.30
2019-05-07T08:47:32.714Z,17.00
2019-05-07T08:50:02.918Z,17.00
2019-05-07T08:52:32.681Z,17.10
2019-05-07T08:55:02.245Z,17.10
2019-05-07T08:57:31.867Z,17.20
2019-05-07T09:00:02.319Z,17.50
2019-05-07T09:02:32.577Z,17.50
2019-05-07T09:05:02.909Z,17.90
2019-05-07T09:07:32.339Z,17.80
2019-05-07T09:10:02.501Z,17.70
2019-05-07T09:12:31.953Z,17.80
2019-05-07T09:15:02.176Z,17.90
2019-05-07T09:17:31.841Z,17.80
2019-05-07T09:20:02.626Z,17.90
2019-05-07T09:22:32.310Z,18.20
2019-05-07T09:25:03.153Z,18.50
2019-05-07T09:27:33.531Z,18.70
2019-05-07T09:30:19.184Z,18.40
2019-05-07T09:32:51.972Z,18.40
2019-05-07T09:35:24.536Z,18.60
2019-05-07T09:37:53.411Z,18.80
2019-05-07T09:40:22.227Z,19.20
2019-05-07T09:42:52.544Z,19.30
2019-05-07T09:45:22.464Z,19.30
2019-05-07T09:47:52.280Z,19.00
2019-05-07T09:50:22.063Z,18.90
2019-05-07T09:52:51.830Z,18.90
2019-05-07T09:55:23.152Z,18.90
2019-05-07T09:57:52.745Z,18.70
2019-05-07T10:00:22.687Z,18.70
2019-05-07T10:02:52.828Z,18.40
2019-05-07T10:05:21.923Z,18.20
2019-05-07T10:07:52.597Z,18.40
2019-05-07T10:10:22.343Z,18.90
2019-05-07T10:13:02.330Z,19.00
2019-05-07T10:15:33.035Z,19.00
2019-05-07T10:18:15.507Z,19.10
2019-05-07T10:20:44.318Z,19.20
2019-05-07T10:23:23.203Z,19.40
2019-05-07T10:25:53.563Z,19.50
2019-05-07T10:28:23.183Z,19.10
2019-05-07T10:30:52.424Z,19.20
2019-05-07T10:33:22.881Z,19.10
2019-05-07T10:35:52.949Z,19.40
2019-05-07T10:38:22.075Z,19.50
2019-05-07T10:40:51.008Z,19.60
2019-05-07T10:43:22.094Z,19.30
2019-05-07T10:45:54.621Z,19.40
2019-05-07T10:48:25.040Z,19.80
2019-05-07T10:50:55.448Z,20.00
2019-05-07T10:53:24.534Z,19.90
2019-05-07T10:55:53.373Z,19.80
2019-05-07T10:58:22.194Z,19.70
2019-05-07T11:00:52.328Z,19.70
2019-05-07T11:03:21.942Z,19.50
2019-05-07T11:05:51.103Z,19.50
2019-05-07T11:08:21.798Z,19.60
2019-05-07T11:10:52.063Z,19.70
2019-05-07T11:13:21.887Z,20.00
2019-05-07T11:15:52.632Z,20.20
2019-05-07T11:18:26.030Z,20.10
2019-05-07T11:20:54.840Z,20.40
2019-05-07T11:23:23.717Z,20.40
2019-05-07T11:25:52.766Z,20.10
2019-05-07T11:28:22.701Z,20.00
2019-05-07T11:30:51.727Z,19.70
2019-05-07T11:33:22.019Z,19.70
2019-05-07T11:35:52.834Z,19.70
2019-05-07T11:38:24.814Z,19.80
2019-05-07T11:40:52.256Z,19.60
2019-05-07T11:43:25.369Z,19.60
2019-05-07T11:45:59.188Z,19.60
2019-05-07T11:48:28.908Z,19.70
2019-05-07T11:51:12.311Z,20.00
2019-05-07T11:54:01.952Z,19.90
2019-05-07T11:56:32.803Z,19.40
2019-05-07T11:59:02.691Z,19.30
2019-05-07T12:01:43.539Z,19.40
2019-05-07T12:04:03.450Z,19.20
2019-05-07T12:06:32.287Z,19.20
2019-05-07T12:09:03.039Z,19.20
2019-05-07T12:11:32.211Z,19.30
2019-05-07T12:14:02.083Z,19.30
2019-05-07T12:16:32.140Z,19.40
2019-05-07T12:19:02.189Z,19.60
2019-05-07T12:21:31.684Z,19.50
2019-05-07T12:24:02.152Z,19.60
2019-05-07T12:26:32.758Z,19.40
2019-05-07T12:29:01.613Z,19.50
2019-05-07T12:31:37.870Z,19.40
2019-05-07T12:34:08.300Z,19.40
2019-05-07T12:36:37.171Z,19.60
2019-05-07T12:39:08.748Z,19.70
2019-05-07T12:41:37.789Z,19.80
2019-05-07T12:44:09.897Z,20.10
2019-05-07T12:46:38.852Z,20.10
2019-05-07T12:49:07.704Z,20.20
2019-05-07T12:51:44.297Z,19.90
2019-05-07T12:54:23.951Z,19.70
2019-05-07T12:56:52.843Z,19.80
2019-05-07T12:59:21.949Z,19.60
2019-05-07T13:02:21.699Z,19.40
2019-05-07T13:04:41.635Z,19.30
2019-05-07T13:07:11.715Z,19.50
2019-05-07T13:09:42.657Z,19.90
2019-05-07T13:12:11.237Z,20.30
2019-05-07T13:14:40.128Z,20.10
2019-05-07T13:17:08.985Z,20.10
2019-05-07T13:19:39.262Z,20.20
2019-05-07T13:22:08.502Z,20.20
2019-05-07T13:24:37.416Z,20.20
2019-05-07T13:27:06.255Z,20.20
2019-05-07T13:29:35.127Z,20.40
2019-05-07T13:32:05.200Z,20.60
2019-05-07T13:34:34.670Z,20.40
2019-05-07T13:37:14.139Z,20.30
2019-05-07T13:39:44.582Z,20.10
2019-05-07T13:42:32.010Z,20.10
2019-05-07T13:45:02.958Z,20.20
2019-05-07T13:47:33.957Z,20.40
2019-05-07T13:50:02.937Z,20.30
2019-05-07T13:52:33.414Z,20.30
2019-05-07T13:55:02.331Z,20.30
2019-05-07T13:57:32.207Z,20.10
2019-05-07T14:00:02.371Z,20.20
2019-05-07T14:02:32.791Z,20.10
2019-05-07T14:05:01.641Z,20.20
2019-05-07T14:07:32.292Z,20.40
2019-05-07T14:10:02.084Z,20.40
2019-05-07T14:12:33.509Z,20.30
2019-05-07T14:15:02.266Z,20.30
2019-05-07T14:17:31.562Z,20.10
2019-05-07T14:20:02.359Z,20.00
2019-05-07T14:22:31.850Z,19.90
2019-05-07T14:25:00.915Z,20.10
2019-05-07T14:27:29.764Z,20.00
2019-05-07T14:29:58.645Z,20.10
2019-05-07T14:32:44.086Z,20.00
2019-05-07T14:35:24.213Z,20.00
2019-05-07T14:37:57.057Z,19.80
2019-05-07T14:40:25.891Z,19.70
2019-05-07T14:42:59.049Z,19.90
2019-05-07T14:45:27.870Z,19.80
2019-05-07T14:47:56.815Z,19.80
2019-05-07T14:50:25.621Z,19.90
2019-05-07T14:52:55.275Z,19.80
2019-05-07T14:55:24.225Z,19.90
2019-05-07T14:57:53.039Z,19.90
2019-05-07T15:00:22.571Z,19.90
2019-05-07T15:02:52.541Z,19.70
2019-05-07T15:05:26.420Z,19.60
2019-05-07T15:08:07.346Z,19.70
2019-05-07T15:10:25.859Z,19.70
2019-05-07T15:12:54.715Z,19.70
2019-05-07T15:15:23.551Z,19.60
2019-05-07T15:18:02.803Z,19.60
2019-05-07T15:20:33.009Z,19.60
2019-05-07T15:23:04.905Z,19.60
2019-05-07T15:25:33.807Z,19.50
2019-05-07T15:28:03.467Z,19.40
2019-05-07T15:30:33.923Z,19.40
2019-05-07T15:33:02.782Z,19.50
2019-05-07T15:35:32.037Z,19.50
2019-05-07T15:38:02.428Z,19.50
2019-05-07T15:40:33.011Z,19.40
2019-05-07T15:43:02.578Z,19.40
2019-05-07T15:45:31.450Z,19.40
2019-05-07T15:48:02.080Z,19.30
2019-05-07T15:50:32.278Z,19.40
2019-05-07T15:53:08.759Z,19.40
2019-05-07T15:55:37.650Z,19.50
2019-05-07T15:58:06.496Z,19.50
2019-05-07T16:00:36.766Z,19.40
2019-05-07T16:03:19.189Z,19.40
2019-05-07T16:05:47.197Z,19.40
2019-05-07T16:08:17.595Z,19.40
2019-05-07T16:10:46.459Z,19.30
2019-05-07T16:13:22.979Z,19.20
2019-05-07T16:15:52.879Z,19.20
2019-05-07T16:18:23.844Z,19.20
2019-05-07T16:20:52.874Z,19.20
2019-05-07T16:23:22.093Z,19.20
2019-05-07T16:25:52.801Z,19.10
2019-05-07T16:28:22.020Z,19.20
2019-05-07T16:30:52.171Z,19.30
2019-05-07T16:33:21.253Z,19.20
2019-05-07T16:35:50.108Z,19.00
2019-05-07T16:38:19.033Z,19.10
2019-05-07T16:40:47.884Z,19.00
2019-05-07T16:43:16.798Z,19.00
2019-05-07T16:45:45.622Z,18.90
2019-05-07T16:48:14.484Z,18.80
2019-05-07T16:50:43.368Z,18.90
2019-05-07T16:53:26.316Z,18.90
2019-05-07T16:55:43.474Z,18.90
2019-05-07T16:58:29.155Z,18.90
2019-05-07T17:01:00.179Z,18.80
2019-05-07T17:03:33.993Z,18.80
2019-05-07T17:06:02.893Z,18.70
2019-05-07T17:08:33.378Z,18.70
2019-05-07T17:11:03.071Z,18.50
2019-05-07T17:13:32.155Z,18.40
2019-05-07T17:16:03.366Z,18.40
2019-05-07T17:18:32.805Z,18.30
2019-05-07T17:21:02.178Z,18.20
2019-05-07T17:23:43.787Z,18.30
2019-05-07T17:26:02.186Z,18.20
2019-05-07T17:28:31.920Z,18.20
2019-05-07T17:31:03.073Z,18.30
2019-05-07T17:33:32.054Z,18.20
2019-05-07T17:36:02.474Z,18.20
2019-05-07T17:38:32.188Z,18.10
2019-05-07T17:41:10.779Z,18.10
2019-05-07T17:43:32.505Z,18.10
2019-05-07T17:46:02.778Z,18.00
2019-05-07T17:48:32.991Z,17.90
2019-05-07T17:51:06.654Z,17.90
2019-05-07T17:53:35.583Z,17.90
2019-05-07T17:56:05.331Z,17.80
2019-05-07T17:58:34.226Z,17.80
2019-05-07T18:01:04.602Z,17.80
2019-05-07T18:03:35.055Z,17.60
2019-05-07T18:06:04.560Z,17.50
2019-05-07T18:08:33.403Z,17.30
2019-05-07T18:11:02.689Z,17.20
2019-05-07T18:13:32.914Z,17.10
2019-05-07T18:16:06.081Z,17.00
2019-05-07T18:18:34.984Z,16.90
2019-05-07T18:21:05.188Z,16.70
2019-05-07T18:23:34.452Z,16.70
2019-05-07T18:26:03.712Z,16.70
2019-05-07T18:28:32.680Z,16.60
2019-05-07T18:31:02.008Z,16.50
2019-05-07T18:33:33.578Z,16.40
2019-05-07T18:36:03.196Z,16.40
2019-05-07T18:38:32.917Z,16.40
2019-05-07T18:41:02.845Z,16.30
2019-05-07T18:43:33.145Z,16.30
2019-05-07T18:46:02.451Z,16.20
2019-05-07T18:48:31.658Z,16.10
2019-05-07T18:51:02.537Z,16.00
2019-05-07T18:53:31.853Z,16.00
2019-05-07T18:56:01.710Z,15.90
2019-05-07T18:58:31.950Z,15.90
2019-05-07T19:01:02.773Z,15.80
2019-05-07T19:03:32.480Z,15.90
2019-05-07T19:06:02.842Z,15.80
2019-05-07T19:08:32.680Z,15.70
2019-05-07T19:11:05.380Z,15.60
2019-05-07T19:13:32.927Z,15.60
2019-05-07T19:16:02.984Z,15.60
2019-05-07T19:18:32.442Z,15.60
2019-05-07T19:21:01.310Z,15.50
2019-05-07T19:23:30.213Z,15.50
2019-05-07T19:25:59.082Z,15.40
2019-05-07T19:28:27.936Z,15.40
2019-05-07T19:30:56.806Z,15.30
2019-05-07T19:33:27.171Z,15.30
2019-05-07T19:35:56.362Z,15.20
2019-05-07T19:38:25.198Z,15.20
2019-05-07T19:40:54.044Z,15.20
2019-05-07T19:43:22.934Z,15.20
2019-05-07T19:45:52.343Z,15.20
2019-05-07T19:48:23.086Z,15.20
2019-05-07T19:50:52.739Z,15.10
2019-05-07T19:53:23.515Z,15.00
2019-05-07T19:56:12.563Z,14.90
2019-05-07T19:58:41.900Z,14.90
2019-05-07T20:01:12.504Z,14.90
2019-05-07T20:03:43.292Z,14.90
2019-05-07T20:06:12.967Z,14.80
2019-05-07T20:08:43.751Z,14.80
2019-05-07T20:11:14.443Z,14.90
2019-05-07T20:13:43.824Z,14.70
2019-05-07T20:16:20.253Z,14.70
2019-05-07T20:18:49.167Z,14.60
2019-05-07T20:21:18.003Z,14.70
2019-05-07T20:23:46.862Z,14.70
2019-05-07T20:26:15.747Z,14.60
2019-05-07T20:28:44.604Z,14.60
2019-05-07T20:31:13.509Z,14.70
2019-05-07T20:33:42.513Z,14.70
2019-05-07T20:36:11.536Z,14.70
2019-05-07T20:38:42.539Z,14.60
2019-05-07T20:41:12.934Z,14.60
2019-05-07T20:43:42.835Z,14.60
2019-05-07T20:46:12.160Z,14.60
2019-05-07T20:48:42.314Z,14.60
2019-05-07T20:51:12.530Z,14.50
2019-05-07T20:53:52.544Z,14.40
2019-05-07T20:56:23.132Z,14.40
2019-05-07T20:58:52.143Z,14.30
2019-05-07T21:01:21.974Z,14.20
2019-05-07T21:03:52.745Z,14.20
2019-05-07T21:06:22.531Z,14.10
2019-05-07T21:08:51.682Z,14.20
2019-05-07T21:11:22.566Z,14.10
2019-05-07T21:13:52.284Z,14.00
2019-05-07T21:16:22.119Z,14.00
2019-05-07T21:18:52.791Z,14.00
2019-05-07T21:21:21.997Z,14.00
2019-05-07T21:23:52.714Z,14.00
2019-05-07T21:26:22.465Z,13.90
2019-05-07T21:28:52.842Z,13.90
2019-05-07T21:31:22.736Z,13.90
2019-05-07T21:33:52.475Z,13.90
2019-05-07T21:36:22.898Z,13.90
2019-05-07T21:38:52.015Z,13.90
2019-05-07T21:41:22.761Z,13.90
2019-05-07T21:43:52.804Z,13.80
2019-05-07T21:46:22.360Z,13.80
2019-05-07T21:48:53.568Z,13.70
2019-05-07T21:51:22.906Z,13.70
2019-05-07T21:53:59.423Z,13.70
2019-05-07T21:56:46.269Z,13.70
2019-05-07T21:59:16.744Z,13.60
2019-05-07T22:01:52.481Z,13.60
2019-05-07T22:04:20.663Z,13.50
2019-05-07T22:06:49.505Z,13.60
2019-05-07T22:09:18.946Z,13.60
2019-05-07T22:11:47.822Z,13.50
2019-05-07T22:14:16.681Z,13.40
2019-05-07T22:16:45.570Z,13.40
2019-05-07T22:19:14.446Z,13.30
2019-05-07T22:21:43.495Z,13.40
2019-05-07T22:24:13.073Z,13.40
2019-05-07T22:26:43.006Z,13.40
2019-05-07T22:29:12.680Z,13.40
2019-05-07T22:31:44.233Z,13.40
2019-05-07T22:34:22.261Z,13.30
2019-05-07T22:36:52.490Z,13.30
2019-05-07T22:39:22.053Z,13.20
2019-05-07T22:41:51.115Z,13.10
2019-05-07T22:44:23.716Z,13.20
2019-05-07T22:46:52.602Z,13.20
2019-05-07T22:49:22.896Z,13.20
2019-05-07T22:51:52.569Z,13.20
2019-05-07T22:54:22.622Z,13.20
2019-05-07T22:57:08.892Z,13.10
2019-05-07T22:59:37.795Z,13.20
2019-05-07T23:02:07.062Z,13.00
2019-05-07T23:04:35.956Z,13.10
2019-05-07T23:07:04.812Z,13.10
2019-05-07T23:09:33.660Z,13.10
2019-05-07T23:12:02.557Z,13.10
2019-05-07T23:14:32.978Z,13.10
2019-05-07T23:17:02.314Z,13.20
2019-05-07T23:19:32.642Z,13.20
2019-05-07T23:22:02.757Z,13.20
2019-05-07T23:24:31.949Z,13.20
2019-05-07T23:27:00.847Z,13.30
2019-05-07T23:29:29.747Z,13.30
2019-05-07T23:31:58.598Z,13.30
2019-05-07T23:34:27.442Z,13.20
2019-05-07T23:36:56.330Z,13.30
2019-05-07T23:39:26.753Z,13.20
2019-05-07T23:41:57.206Z,13.20
2019-05-07T23:44:26.085Z,13.10
2019-05-07T23:46:55.334Z,13.20
2019-05-07T23:49:24.214Z,13.20
2019-05-07T23:51:53.329Z,13.10
2019-05-07T23:54:23.161Z,13.10
2019-05-07T23:57:05.047Z,13.10
2019-05-07T23:59:22.801Z,13.10
